createdAt,value
2023-05-03T00:00:35.123Z,10.45
2023-05-03T00:03:04.812Z,10.39
2023-05-03T00:05:32.707Z,10.35
2023-05-03T00:08:00.836Z,10.39
2023-05-03T00:10:30.330Z,10.28
2023-05-03T00:12:58.139Z,10.31
2023-05-03T00:15:27.090Z,10.17
2023-05-03T00:17:57.854Z,10.22
2023-05-03T00:20:26.427Z,10.20
2023-05-03T00:22:54.184Z,10.13
2023-05-03T00:25:21.911Z,10.09
2023-05-03T00:27:50.969Z,10.08
2023-05-03T00:30:19.531Z,10.08
2023-05-03T00:32:47.552Z,10.07
2023-05-03T00:35:15.327Z,9.99
2023-05-03T00:37:43.081Z,9.98
2023-05-03T00:40:11.361Z,9.95
2023-05-03T00:42:39.148Z,10.00
2023-05-03T00:45:09.234Z,9.95
2023-05-03T00:47:37.893Z,9.91
2023-05-03T00:50:07.285Z,9.93
2023-05-03T00:52:35.700Z,9.92
2023-05-03T00:55:03.541Z,9.88
2023-05-03T00:57:31.961Z,9.88
2023-05-03T00:59:59.949Z,9.79
2023-05-03T01:02:30.470Z,9.89
2023-05-03T01:04:58.439Z,9.85
2023-05-03T01:07:35.720Z,9.85
2023-05-03T01:10:13.743Z,9.82
2023-05-03T01:12:53.686Z,9.81
2023-05-03T01:15:37.285Z,9.71
2023-05-03T01:18:12.497Z,9.73
2023-05-03T01:20:44.778Z,9.60
2023-05-03T01:23:20.325Z,9.69
2023-05-03T01:25:53.162Z,9.69
2023-05-03T01:28:21.480Z,9.50
2023-05-03T01:30:53.263Z,9.61
2023-05-03T01:33:34.564Z,9.61
2023-05-03T01:36:10.175Z,9.57
2023-05-03T01:38:38.904Z,9.55
2023-05-03T01:41:12.625Z,9.56
2023-05-03T01:43:41.654Z,9.50
2023-05-03T01:46:09.526Z,9.53
2023-05-03T01:48:37.329Z,9.51
2023-05-03T01:51:05.941Z,9.50
2023-05-03T01:53:33.703Z,9.51
2023-05-03T01:56:01.509Z,9.49
2023-05-03T01:58:30.568Z,9.52
2023-05-03T02:00:58.382Z,9.49
2023-05-03T02:03:26.140Z,9.48
2023-05-03T02:05:54.111Z,9.45
2023-05-03T02:08:21.972Z,9.41
2023-05-03T02:10:49.735Z,9.47
2023-05-03T02:13:17.548Z,9.46
2023-05-03T02:15:50.284Z,9.41
2023-05-03T02:18:18.443Z,9.40
2023-05-03T02:20:46.616Z,9.30
2023-05-03T02:23:14.852Z,9.22
2023-05-03T02:25:42.906Z,9.29
2023-05-03T02:28:10.727Z,9.27
2023-05-03T02:30:38.584Z,9.35
2023-05-03T02:33:07.783Z,9.28
2023-05-03T02:35:37.156Z,9.25
2023-05-03T02:38:04.894Z,9.26
2023-05-03T02:40:32.755Z,9.24
2023-05-03T02:43:00.860Z,9.28
2023-05-03T02:45:30.841Z,9.24
2023-05-03T02:47:59.078Z,9.16
2023-05-03T02:50:29.498Z,9.18
2023-05-03T02:52:57.321Z,9.14
2023-05-03T02:55:25.161Z,9.12
2023-05-03T02:57:53.059Z,9.12
2023-05-03T03:00:21.847Z,9.06
2023-05-03T03:02:50.085Z,8.94
2023-05-03T03:05:17.922Z,9.09
2023-05-03T03:07:51.236Z,9.01
2023-05-03T03:10:19.298Z,9.00
2023-05-03T03:12:47.541Z,8.94
2023-05-03T03:15:23.976Z,8.92
2023-05-03T03:17:52.238Z,8.90
2023-05-03T03:20:20.244Z,8.91
2023-05-03T03:22:49.234Z,8.84
2023-05-03T03:25:18.343Z,8.85
2023-05-03T03:27:46.082Z,8.82
2023-05-03T03:30:14.309Z,8.78
2023-05-03T03:32:53.697Z,8.75
2023-05-03T03:35:28.831Z,8.72
2023-05-03T03:37:56.870Z,8.68
2023-05-03T03:40:26.836Z,8.76
2023-05-03T03:42:56.750Z,8.73
2023-05-03T03:45:24.601Z,8.68
2023-05-03T03:47:53.759Z,8.66
2023-05-03T03:50:23.670Z,8.64
2023-05-03T03:52:51.424Z,8.59
2023-05-03T03:55:19.388Z,8.56
2023-05-03T03:57:50.975Z,8.59
2023-05-03T04:00:19.449Z,8.58
2023-05-03T04:02:53.129Z,8.57
2023-05-03T04:05:21.304Z,8.58
2023-05-03T04:07:49.486Z,8.54
2023-05-03T04:10:18.306Z,8.56
2023-05-03T04:12:46.096Z,8.54
2023-05-03T04:15:19.880Z,8.51
2023-05-03T04:17:48.397Z,8.55
2023-05-03T04:20:18.134Z,8.54
2023-05-03T04:22:50.595Z,8.59
2023-05-03T04:25:20.683Z,8.60
2023-05-03T04:27:56.125Z,8.64
2023-05-03T04:30:26.434Z,8.67
2023-05-03T04:32:58.470Z,8.61
2023-05-03T04:35:28.736Z,8.66
2023-05-03T04:37:57.997Z,8.59
2023-05-03T04:40:27.865Z,8.63
2023-05-03T04:43:05.357Z,8.71
2023-05-03T04:45:38.383Z,8.77
2023-05-03T04:48:09.353Z,8.81
2023-05-03T04:50:37.667Z,8.82
2023-05-03T04:53:08.463Z,8.68
2023-05-03T04:55:40.168Z,8.76
2023-05-03T04:58:07.988Z,8.76
2023-05-03T05:00:38.888Z,8.81
2023-05-03T05:03:13.235Z,8.85
2023-05-03T05:05:41.068Z,8.87
2023-05-03T05:08:12.010Z,8.88
2023-05-03T05:10:45.128Z,8.93
2023-05-03T05:13:17.367Z,8.93
2023-05-03T05:15:46.609Z,8.90
2023-05-03T05:18:14.997Z,8.96
2023-05-03T05:20:43.122Z,8.92
2023-05-03T05:23:11.191Z,8.96
2023-05-03T05:25:42.699Z,9.02
2023-05-03T05:28:11.214Z,8.99
2023-05-03T05:30:40.057Z,9.02
2023-05-03T05:33:09.811Z,9.02
2023-05-03T05:35:38.503Z,9.06
2023-05-03T05:38:06.421Z,9.14
2023-05-03T05:40:35.794Z,9.13
2023-05-03T05:43:03.632Z,9.18
2023-05-03T05:45:35.927Z,9.17
2023-05-03T05:48:05.547Z,9.25
2023-05-03T05:50:36.552Z,9.25
2023-05-03T05:53:10.142Z,9.30
2023-05-03T05:55:41.835Z,9.34
2023-05-03T05:58:12.021Z,9.31
2023-05-03T06:00:45.226Z,9.29
2023-05-03T06:03:13.491Z,9.39
2023-05-03T06:05:42.831Z,9.44
2023-05-03T06:08:11.643Z,9.50
2023-05-03T06:10:39.979Z,9.50
2023-05-03T06:13:07.765Z,9.65
2023-05-03T06:15:36.268Z,9.76
2023-05-03T06:18:04.622Z,9.84
2023-05-03T06:20:32.538Z,9.86
2023-05-03T06:23:02.211Z,9.87
2023-05-03T06:25:30.014Z,9.84
2023-05-03T06:27:58.204Z,9.84
2023-05-03T06:30:31.135Z,9.66
2023-05-03T06:33:05.262Z,9.97
2023-05-03T06:35:33.436Z,10.02
2023-05-03T06:38:02.575Z,10.09
2023-05-03T06:40:30.378Z,10.11
2023-05-03T06:42:58.102Z,10.19
2023-05-03T06:45:46.112Z,10.25
2023-05-03T06:48:13.892Z,10.30
2023-05-03T06:50:41.795Z,10.33
2023-05-03T06:53:11.061Z,10.33
2023-05-03T06:55:38.782Z,10.43
2023-05-03T06:58:10.036Z,10.51
2023-05-03T07:00:39.123Z,10.52
2023-05-03T07:03:07.170Z,10.61
2023-05-03T07:05:35.233Z,10.65
2023-05-03T07:08:03.653Z,10.71
2023-05-03T07:10:32.804Z,10.77
2023-05-03T07:13:00.535Z,10.75
2023-05-03T07:15:28.250Z,10.77
2023-05-03T07:17:56.052Z,10.85
2023-05-03T07:20:23.833Z,10.89
2023-05-03T07:22:51.618Z,10.89
2023-05-03T07:25:19.472Z,10.93
2023-05-03T07:27:48.611Z,10.96
2023-05-03T07:30:16.436Z,10.96
2023-05-03T07:32:44.210Z,11.03
2023-05-03T07:35:12.145Z,11.04
2023-05-03T07:37:39.925Z,11.08
2023-05-03T07:40:09.718Z,11.11
2023-05-03T07:42:37.463Z,11.11
2023-05-03T07:45:07.990Z,11.23
2023-05-03T07:47:38.116Z,11.13
2023-05-03T07:50:07.381Z,11.24
2023-05-03T07:52:37.399Z,11.26
2023-05-03T07:55:06.769Z,11.27
2023-05-03T07:57:34.591Z,11.35
2023-05-03T08:00:02.562Z,11.37
2023-05-03T08:02:42.184Z,11.37
2023-05-03T08:05:14.567Z,11.39
2023-05-03T08:07:42.770Z,11.42
2023-05-03T08:10:11.495Z,11.48
2023-05-03T08:12:39.400Z,11.50
2023-05-03T08:15:08.562Z,11.51
2023-05-03T08:17:42.845Z,11.43
2023-05-03T08:20:11.939Z,11.49
2023-05-03T08:22:41.333Z,11.57
2023-05-03T08:25:09.997Z,11.62
2023-05-03T08:27:38.310Z,11.66
2023-05-03T08:30:07.778Z,11.64
2023-05-03T08:32:35.633Z,11.70
2023-05-03T08:35:06.983Z,11.76
2023-05-03T08:37:39.980Z,11.79
2023-05-03T08:40:10.166Z,11.85
2023-05-03T08:42:41.169Z,11.91
2023-05-03T08:45:11.313Z,11.82
2023-05-03T08:47:40.723Z,12.01
2023-05-03T08:50:12.081Z,12.05
2023-05-03T08:52:42.543Z,12.02
2023-05-03T08:55:12.028Z,12.08
2023-05-03T08:57:41.108Z,12.13
2023-05-03T09:00:10.964Z,12.08
2023-05-03T09:02:39.948Z,12.08
2023-05-03T09:05:33.952Z,12.19
2023-05-03T09:08:03.569Z,12.26
2023-05-03T09:10:31.482Z,12.27
2023-05-03T09:13:00.999Z,12.22
2023-05-03T09:15:29.643Z,12.30
2023-05-03T09:18:15.520Z,12.40
2023-05-03T09:20:51.458Z,12.46
2023-05-03T09:23:21.128Z,12.52
2023-05-03T09:25:51.335Z,12.53
2023-05-03T09:28:20.585Z,12.53
2023-05-03T09:30:49.253Z,12.49
2023-05-03T09:33:21.382Z,12.50
2023-05-03T09:36:02.646Z,12.47
2023-05-03T09:38:31.991Z,12.34
2023-05-03T09:40:59.857Z,12.53
2023-05-03T09:43:27.680Z,12.66
2023-05-03T09:46:09.368Z,12.80
2023-05-03T09:48:37.911Z,12.81
2023-05-03T09:51:08.076Z,12.85
2023-05-03T09:53:36.904Z,12.78
2023-05-03T09:56:06.107Z,12.97
2023-05-03T09:58:35.175Z,13.08
2023-05-03T10:01:03.456Z,13.13
2023-05-03T10:03:39.197Z,13.04
2023-05-03T10:06:20.758Z,13.15
2023-05-03T10:08:52.191Z,13.15
2023-05-03T10:11:20.998Z,13.36
2023-05-03T10:13:48.773Z,13.48
2023-05-03T10:16:22.400Z,13.72
2023-05-03T10:18:55.576Z,13.79
2023-05-03T10:21:34.508Z,13.92
2023-05-03T10:24:13.699Z,13.96
2023-05-03T10:26:42.442Z,14.22
2023-05-03T10:29:48.892Z,14.60
2023-05-03T10:32:30.641Z,15.01
2023-05-03T10:35:00.716Z,15.44
2023-05-03T10:37:34.527Z,15.94
2023-05-03T10:40:11.509Z,16.23
2023-05-03T10:42:40.120Z,16.62
2023-05-03T10:45:09.930Z,16.60
2023-05-03T10:47:37.900Z,16.96
2023-05-03T10:50:28.091Z,17.25
2023-05-03T10:52:57.391Z,17.45
2023-05-03T10:55:28.174Z,17.70
2023-05-03T10:57:58.676Z,17.76
2023-05-03T11:00:32.497Z,18.04
2023-05-03T11:03:12.156Z,18.28
2023-05-03T11:05:40.316Z,18.30
2023-05-03T11:08:13.897Z,18.70
2023-05-03T11:10:42.224Z,18.49
2023-05-03T11:13:09.991Z,18.56
2023-05-03T11:15:37.783Z,18.90
2023-05-03T11:18:07.138Z,19.10
2023-05-03T11:20:35.014Z,19.01
2023-05-03T11:23:03.859Z,19.35
2023-05-03T11:25:33.529Z,19.74
2023-05-03T11:28:01.502Z,19.67
2023-05-03T11:30:29.778Z,19.63
2023-05-03T11:32:57.690Z,19.70
2023-05-03T11:35:26.988Z,19.99
2023-05-03T11:37:54.840Z,20.36
2023-05-03T11:40:22.543Z,20.68
2023-05-03T11:42:56.028Z,20.59
2023-05-03T11:45:25.681Z,20.90
2023-05-03T11:47:54.682Z,21.05
2023-05-03T11:50:29.428Z,20.79
2023-05-03T11:52:57.420Z,21.32
2023-05-03T11:55:25.169Z,21.43
2023-05-03T11:57:54.310Z,21.52
2023-05-03T12:00:22.710Z,22.03
2023-05-03T12:02:51.136Z,22.25
2023-05-03T12:05:20.016Z,22.34
2023-05-03T12:07:50.092Z,22.22
2023-05-03T12:10:23.098Z,22.35
2023-05-03T12:13:00.243Z,22.57
2023-05-03T12:15:30.378Z,22.71
2023-05-03T12:18:00.207Z,22.35
2023-05-03T12:23:04.252Z,22.96
2023-05-03T12:25:34.345Z,22.73
2023-05-03T12:30:37.095Z,22.92
2023-05-03T12:33:10.172Z,23.37
2023-05-03T12:35:40.959Z,23.59
2023-05-03T12:38:10.317Z,23.79
2023-05-03T12:40:39.499Z,23.80
2023-05-03T12:43:08.942Z,24.06
2023-05-03T12:45:40.112Z,24.48
2023-05-03T12:48:09.212Z,24.63
2023-05-03T12:50:39.362Z,24.69
2023-05-03T12:53:09.699Z,24.51
2023-05-03T12:55:43.430Z,24.42
2023-05-03T12:58:46.301Z,24.77
2023-05-03T13:03:34.143Z,24.65
2023-05-03T13:06:12.740Z,24.83
2023-05-03T13:08:49.622Z,24.53
2023-05-03T13:11:19.177Z,24.64
2023-05-03T13:13:48.819Z,24.96
2023-05-03T13:16:16.677Z,25.14
2023-05-03T13:18:45.465Z,24.98
2023-05-03T13:21:13.576Z,25.17
2023-05-03T13:23:41.488Z,25.34
2023-05-03T13:26:09.287Z,25.30
2023-05-03T13:28:37.055Z,25.26
2023-05-03T13:31:06.293Z,25.37
2023-05-03T13:33:37.928Z,25.37
2023-05-03T13:36:06.052Z,25.42
2023-05-03T13:38:33.911Z,25.76
2023-05-03T13:41:02.367Z,25.70
2023-05-03T13:43:33.448Z,25.82
2023-05-03T13:46:01.929Z,25.91
2023-05-03T13:48:32.623Z,25.98
2023-05-03T13:51:00.596Z,25.66
2023-05-03T13:53:28.441Z,25.32
2023-05-03T13:55:56.532Z,25.11
2023-05-03T13:58:24.301Z,24.84
2023-05-03T14:00:52.245Z,24.46
2023-05-03T14:03:21.795Z,24.30
2023-05-03T14:05:51.029Z,24.04
2023-05-03T14:08:18.929Z,23.80
2023-05-03T14:10:46.671Z,23.59
2023-05-03T14:13:14.626Z,23.34
2023-05-03T14:15:43.958Z,23.33
2023-05-03T14:18:14.346Z,23.37
2023-05-03T14:20:42.347Z,23.31
2023-05-03T14:23:11.441Z,23.33
2023-05-03T14:25:39.300Z,23.27
2023-05-03T14:28:07.086Z,23.19
2023-05-03T14:30:35.024Z,23.31
2023-05-03T14:33:02.889Z,23.38
2023-05-03T14:35:30.618Z,23.46
2023-05-03T14:37:58.762Z,23.38
2023-05-03T14:40:28.027Z,23.34
2023-05-03T14:42:55.757Z,23.33
2023-05-03T14:45:23.543Z,23.15
2023-05-03T14:47:53.358Z,23.19
2023-05-03T14:50:21.213Z,23.24
2023-05-03T14:52:49.051Z,23.28
2023-05-03T14:55:17.280Z,23.30
2023-05-03T14:57:46.533Z,23.20
2023-05-03T15:00:17.621Z,23.09
2023-05-03T15:02:46.678Z,22.88
2023-05-03T15:05:25.409Z,22.72
2023-05-03T15:07:55.266Z,22.64
2023-05-03T15:10:23.246Z,22.57
2023-05-03T15:12:52.304Z,22.46
2023-05-03T15:15:20.185Z,22.34
2023-05-03T15:17:48.245Z,22.35
2023-05-03T15:20:16.654Z,22.30
2023-05-03T15:22:44.473Z,22.18
2023-05-03T15:25:12.395Z,22.05
2023-05-03T15:27:40.186Z,22.04
2023-05-03T15:30:12.289Z,21.92
2023-05-03T15:32:40.283Z,21.92
2023-05-03T15:35:08.422Z,21.84
2023-05-03T15:37:37.907Z,21.81
2023-05-03T15:40:09.216Z,21.71
2023-05-03T15:42:37.081Z,21.62
2023-05-03T15:45:06.068Z,21.64
2023-05-03T15:47:35.660Z,21.63
2023-05-03T15:50:04.019Z,21.61
2023-05-03T15:52:32.030Z,21.56
2023-05-03T15:54:59.786Z,21.60
2023-05-03T15:57:28.084Z,21.65
2023-05-03T15:59:56.680Z,21.63
2023-05-03T16:02:24.632Z,21.68
2023-05-03T16:04:53.828Z,21.81
2023-05-03T16:07:21.675Z,21.76
2023-05-03T16:09:49.608Z,21.80
2023-05-03T16:12:17.373Z,21.87
2023-05-03T16:14:45.166Z,21.84
2023-05-03T16:17:12.961Z,21.89
2023-05-03T16:19:40.653Z,21.84
2023-05-03T16:22:09.749Z,21.88
2023-05-03T16:24:37.541Z,21.79
2023-05-03T16:27:05.503Z,21.73
2023-05-03T16:29:34.457Z,21.88
2023-05-03T16:32:02.200Z,21.89
2023-05-03T16:34:30.013Z,21.99
2023-05-03T16:36:57.719Z,21.92
2023-05-03T16:39:26.886Z,21.76
2023-05-03T16:41:54.580Z,21.79
2023-05-03T16:44:22.336Z,21.72
2023-05-03T16:46:51.122Z,21.77
2023-05-03T16:49:19.363Z,21.69
2023-05-03T16:51:47.178Z,21.77
2023-05-03T16:54:16.863Z,21.62
2023-05-03T16:56:46.331Z,21.68
2023-05-03T16:59:17.034Z,21.45
2023-05-03T17:01:45.603Z,21.57
2023-05-03T17:04:14.151Z,21.48
2023-05-03T17:06:42.159Z,21.38
2023-05-03T17:09:10.432Z,21.28
2023-05-03T17:11:38.181Z,21.21
2023-05-03T17:14:07.310Z,21.14
2023-05-03T17:16:35.164Z,21.00
2023-05-03T17:19:02.939Z,20.91
2023-05-03T17:21:31.427Z,20.73
2023-05-03T17:23:59.096Z,20.52
2023-05-03T17:26:26.902Z,20.34
2023-05-03T17:28:54.613Z,20.18
2023-05-03T17:31:23.729Z,19.98
2023-05-03T17:33:52.054Z,19.85
2023-05-03T17:36:22.053Z,19.62
2023-05-03T17:38:50.116Z,19.62
2023-05-03T17:41:17.887Z,19.52
2023-05-03T17:43:45.613Z,19.46
2023-05-03T17:46:15.002Z,19.37
2023-05-03T17:48:44.394Z,19.27
2023-05-03T17:51:13.540Z,19.20
2023-05-03T17:53:43.438Z,19.08
2023-05-03T17:56:16.220Z,18.98
2023-05-03T17:58:44.776Z,18.90
2023-05-03T18:01:15.997Z,18.82
2023-05-03T18:03:45.461Z,18.76
2023-05-03T18:06:14.566Z,18.69
2023-05-03T18:08:42.559Z,18.64
2023-05-03T18:11:10.355Z,18.56
2023-05-03T18:13:38.136Z,18.52
2023-05-03T18:16:08.973Z,18.41
2023-05-03T18:18:37.295Z,18.29
2023-05-03T18:21:07.165Z,18.24
2023-05-03T18:23:35.213Z,18.19
2023-05-03T18:26:05.474Z,18.09
2023-05-03T18:28:33.151Z,18.07
2023-05-03T18:31:00.910Z,18.01
2023-05-03T18:33:28.671Z,17.83
2023-05-03T18:35:57.019Z,17.86
2023-05-03T18:38:29.587Z,17.64
2023-05-03T18:40:57.461Z,17.77
2023-05-03T18:43:25.224Z,17.71
2023-05-03T18:45:53.280Z,17.67
2023-05-03T18:48:21.006Z,17.61
2023-05-03T18:50:49.214Z,17.31
2023-05-03T18:53:16.918Z,17.40
2023-05-03T18:55:46.198Z,17.37
2023-05-03T18:58:13.912Z,17.28
2023-05-03T19:00:41.721Z,17.26
2023-05-03T19:03:09.884Z,17.23
2023-05-03T19:05:37.683Z,17.11
2023-05-03T19:08:05.752Z,17.00
2023-05-03T19:10:33.485Z,17.01
2023-05-03T19:13:03.310Z,16.98
2023-05-03T19:15:31.181Z,16.99
2023-05-03T19:17:58.965Z,16.94
2023-05-03T19:20:26.883Z,16.84
2023-05-03T19:22:54.647Z,16.82
2023-05-03T19:25:22.491Z,16.83
2023-05-03T19:27:50.856Z,16.78
2023-05-03T19:30:20.351Z,16.73
2023-05-03T19:32:51.008Z,16.53
2023-05-03T19:35:18.968Z,16.65
2023-05-03T19:37:46.723Z,16.64
2023-05-03T19:40:14.963Z,16.54
2023-05-03T19:42:42.793Z,16.49
2023-05-03T19:45:11.399Z,16.46
2023-05-03T19:47:40.508Z,16.45
2023-05-03T19:50:08.712Z,16.43
2023-05-03T19:52:36.510Z,16.38
2023-05-03T19:55:07.097Z,16.36
2023-05-03T19:57:34.979Z,16.30
2023-05-03T20:00:04.744Z,16.18
2023-05-03T20:02:33.055Z,16.10
2023-05-03T20:05:02.204Z,15.97
2023-05-03T20:07:30.122Z,15.92
2023-05-03T20:09:58.029Z,15.91
2023-05-03T20:12:26.805Z,15.87
2023-05-03T20:14:54.640Z,15.81
2023-05-03T20:17:22.493Z,15.81
2023-05-03T20:19:50.703Z,15.77
2023-05-03T20:22:19.866Z,15.73
2023-05-03T20:24:47.574Z,15.74
2023-05-03T20:27:15.332Z,15.71
2023-05-03T20:29:43.652Z,15.69
2023-05-03T20:32:11.526Z,15.70
2023-05-03T20:34:40.181Z,15.67
2023-05-03T20:37:08.290Z,15.53
2023-05-03T20:39:37.800Z,15.64
2023-05-03T20:42:05.845Z,15.56
2023-05-03T20:44:33.569Z,15.56
2023-05-03T20:47:01.284Z,15.55
2023-05-03T20:49:30.037Z,15.49
2023-05-03T20:51:57.795Z,15.51
2023-05-03T20:54:26.106Z,15.47
2023-05-03T20:56:55.912Z,15.40
2023-05-03T20:59:23.678Z,15.42
2023-05-03T21:01:52.258Z,15.40
2023-05-03T21:04:20.089Z,15.34
2023-05-03T21:06:47.816Z,15.33
2023-05-03T21:09:15.519Z,15.26
2023-05-03T21:11:43.257Z,15.30
2023-05-03T21:14:13.615Z,15.21
2023-05-03T21:16:41.354Z,15.19
2023-05-03T21:19:09.111Z,15.19
2023-05-03T21:21:36.851Z,15.20
2023-05-03T21:24:04.782Z,15.13
2023-05-03T21:26:32.580Z,15.06
2023-05-03T21:29:00.579Z,15.05
2023-05-03T21:31:29.809Z,15.07
2023-05-03T21:33:58.136Z,15.03
2023-05-03T21:36:25.910Z,15.01
2023-05-03T21:38:53.690Z,15.01
2023-05-03T21:41:21.455Z,14.94
2023-05-03T21:43:50.739Z,14.93
2023-05-03T21:46:18.534Z,14.87
2023-05-03T21:48:47.767Z,14.86
2023-05-03T21:51:19.391Z,14.81
2023-05-03T21:53:47.387Z,14.74
2023-05-03T21:56:15.283Z,14.66
2023-05-03T21:58:45.229Z,14.53
2023-05-03T22:01:13.288Z,14.50
2023-05-03T22:03:41.348Z,14.42
2023-05-03T22:06:10.817Z,14.33
2023-05-03T22:08:38.680Z,14.31
2023-05-03T22:11:07.818Z,14.11
2023-05-03T22:13:43.185Z,14.12
2023-05-03T22:16:19.290Z,14.06
2023-05-03T22:18:47.078Z,14.00
2023-05-03T22:21:16.554Z,13.97
2023-05-03T22:23:44.278Z,13.96
2023-05-03T22:26:12.481Z,13.94
2023-05-03T22:28:40.198Z,13.92
2023-05-03T22:31:07.917Z,13.79
2023-05-03T22:33:35.584Z,13.78
2023-05-03T22:36:03.289Z,13.73
2023-05-03T22:38:32.359Z,13.67
2023-05-03T22:41:00.116Z,13.66
2023-05-03T22:43:27.798Z,13.64
2023-05-03T22:45:55.893Z,13.63
2023-05-03T22:48:23.638Z,13.61
2023-05-03T22:50:51.591Z,13.44
2023-05-03T22:53:19.701Z,13.50
2023-05-03T22:55:56.084Z,13.41
2023-05-03T22:58:24.045Z,13.43
2023-05-03T23:00:52.574Z,13.35
2023-05-03T23:03:20.499Z,13.31
2023-05-03T23:05:49.274Z,13.23
2023-05-03T23:08:17.004Z,13.24
2023-05-03T23:10:44.726Z,13.25
2023-05-03T23:13:14.272Z,13.21
2023-05-03T23:15:42.215Z,13.22
2023-05-03T23:18:10.019Z,13.12
2023-05-03T23:20:37.804Z,13.10
2023-05-03T23:23:05.601Z,13.10
2023-05-03T23:25:33.590Z,13.17
2023-05-03T23:28:01.357Z,13.07
2023-05-03T23:30:30.795Z,13.08
2023-05-03T23:32:59.086Z,12.99
2023-05-03T23:35:27.336Z,12.95
2023-05-03T23:37:55.128Z,12.96
2023-05-03T23:40:22.803Z,12.96
2023-05-03T23:42:50.476Z,12.89
2023-05-03T23:45:18.480Z,12.83
2023-05-03T23:47:47.513Z,12.87
2023-05-03T23:50:15.268Z,12.80
2023-05-03T23:52:43.224Z,12.75
2023-05-03T23:55:11.555Z,12.78
2023-05-03T23:57:39.467Z,12.75
